Time;durP1;ratioP1;P1;durP2;ratioP2;P2;SDS_P1;SDS_P2;PMS_P1;PMS_P2;Temp;Humidity;BMP_temperature;BMP_pressure;BME280_temperature;BME280_humidity;BME280_pressure;Samples;Min_cycle;Max_cycle;Signal;HPM_P1;HPM_P2
2021/12/14 00:00:25;111848.00;0.37;194.02;0.00;0.00;0.62;;;;;11.60;1.00;;;;;;2269217;61;967;-80
2021/12/14 00:02:54;102676.00;0.34;178.19;0.00;0.00;0.62;;;;;11.80;1.00;;;;;;2272883;61;992;-83
2021/12/14 00:05:26;112232.00;0.37;194.68;0.00;0.00;0.62;;;;;11.80;1.00;;;;;;2269207;61;944;-82
2021/12/14 00:07:56;493000.00;1.64;849.77;92723.00;0.31;161.01;;;;;11.80;1.00;;;;;;2269185;61;1453;-83
2021/12/14 00:10:46;152142.00;0.51;263.50;0.00;0.00;0.62;;;;;11.70;1.00;;;;;;2269090;61;956;-83
2021/12/14 00:13:29;201413.00;0.67;348.36;0.00;0.00;0.62;;;;;11.20;1.00;;;;;;2265800;61;1917;-84
2021/12/14 00:15:57;189513.00;0.63;327.87;0.00;0.00;0.62;;;;;11.10;1.00;;;;;;2268102;61;999;-81
2021/12/14 00:18:27;126130.00;0.42;218.66;0.00;0.00;0.62;;;;;10.90;1.00;;;;;;2261600;61;1420;-84
2021/12/14 00:20:57;205929.00;0.69;356.13;0.00;0.00;0.62;;;;;11.10;1.00;;;;;;2268377;61;1068;-84
2021/12/14 00:28:40;430056.00;1.43;741.48;0.00;0.00;0.62;;;;;11.30;1.00;;;;;;2278332;61;1413;-83
2021/12/14 00:31:14;125181.00;0.42;217.02;0.00;0.00;0.62;;;;;11.20;1.00;;;;;;2273063;61;1174;-84
2021/12/14 00:36:12;165478.00;0.55;286.48;0.00;0.00;0.62;;;;;11.50;1.00;;;;;;2282686;60;1430;-82
2021/12/14 00:38:41;196252.00;0.65;339.47;0.00;0.00;0.62;;;;;11.10;1.00;;;;;;2277053;61;1341;-82
2021/12/14 00:41:13;148140.00;0.49;256.60;0.00;0.00;0.62;;;;;11.10;1.00;;;;;;2276724;61;923;-82
2021/12/14 00:43:40;119728.00;0.40;207.61;0.00;0.00;0.62;;;;;11.00;1.00;;;;;;2276735;61;941;-84
2021/12/14 00:46:08;140118.00;0.47;242.77;0.00;0.00;0.62;;;;;11.00;1.00;;;;;;2276800;61;926;-85
2021/12/14 00:48:36;161123.00;0.54;278.97;0.00;0.00;0.62;;;;;10.90;1.00;;;;;;2269469;61;1420;-84
2021/12/14 00:51:05;118765.00;0.40;205.95;0.00;0.00;0.62;;;;;11.20;1.00;;;;;;2272210;61;952;-84
2021/12/14 00:53:35;172012.00;0.57;297.73;0.00;0.00;0.62;;;;;11.50;1.00;;;;;;2272179;61;2001;-84
2021/12/14 01:01:15;383400.00;1.28;661.27;0.00;0.00;0.62;;;;;11.50;1.00;;;;;;2278307;61;1414;-83
2021/12/14 01:03:50;98534.00;0.33;171.04;0.00;0.00;0.62;;;;;11.40;1.00;;;;;;2269745;61;1031;-82
2021/12/14 01:06:18;314081.00;1.05;542.12;0.00;0.00;0.62;;;;;11.60;1.00;;;;;;2269701;61;973;-84
2021/12/14 01:11:18;245575.00;0.82;424.34;0.00;0.00;0.62;;;;;11.30;1.00;;;;;;2278387;61;1426;-84
2021/12/14 01:13:55;170223.00;0.57;294.65;0.00;0.00;0.62;;;;;11.10;1.00;;;;;;2269789;61;2004;-83
2021/12/14 01:16:35;165451.00;0.55;286.43;0.00;0.00;0.62;;;;;11.10;1.00;;;;;;2276122;61;947;-81
2021/12/14 01:19:16;178850.00;0.60;309.51;0.00;0.00;0.62;;;;;11.20;1.00;;;;;;2265755;61;960;-85
2021/12/14 01:22:02;147465.00;0.49;255.44;0.00;0.00;0.62;;;;;11.20;1.00;;;;;;2357102;40;3930;31
2021/12/14 01:26:58;355586.00;1.19;613.46;0.00;0.00;0.62;;;;;10.50;1.00;;;;;;2277518;61;1394;-85
2021/12/14 01:29:25;306860.00;1.02;529.71;0.00;0.00;0.62;;;;;10.50;1.00;;;;;;2275973;61;1100;-85
2021/12/14 01:31:58;366950.00;1.22;632.99;0.00;0.00;0.62;;;;;10.80;1.00;;;;;;2275533;61;1235;-86
2021/12/14 01:34:25;480262.00;1.60;827.85;29419.00;0.10;51.58;;;;;11.20;1.00;;;;;;2272545;61;1946;-85
2021/12/14 01:36:56;468701.00;1.56;807.95;0.00;0.00;0.62;;;;;11.20;1.00;;;;;;2271469;61;1101;-85
2021/12/14 01:39:47;121506192.00;405.02;72671560.00;25234.00;0.08;44.33;;;;;11.20;1.00;;;;;;2271640;61;1306;-85
2021/12/14 01:42:20;621029.00;2.07;1070.54;0.00;0.00;0.62;;;;;10.90;1.00;;;;;;2271222;61;1063;-85
2021/12/14 01:44:50;460537.00;1.54;793.91;0.00;0.00;0.62;;;;;11.00;1.00;;;;;;2271240;61;1502;-85
2021/12/14 01:47:22;548110.00;1.83;944.70;0.00;0.00;0.62;;;;;11.00;1.00;;;;;;2271301;61;1109;-85
2021/12/14 01:49:50;345375.00;1.15;595.91;0.00;0.00;0.62;;;;;10.70;1.00;;;;;;2271594;61;1105;-85
2021/12/14 01:52:20;472758.00;1.58;814.94;15895.00;0.05;28.16;;;;;10.60;1.00;;;;;;2271102;61;1087;-85
2021/12/14 01:54:52;607181.00;2.02;1046.62;0.00;0.00;0.62;;;;;10.70;1.00;;;;;;2270826;61;2041;-85
2021/12/14 01:57:25;353687.00;1.18;610.20;0.00;0.00;0.62;;;;;11.00;1.00;;;;;;2272476;61;1568;-86
2021/12/14 01:59:55;403295.00;1.34;695.47;0.00;0.00;0.62;;;;;10.80;1.00;;;;;;2270884;61;1098;-85
2021/12/14 02:02:30;532698.00;1.78;918.14;0.00;0.00;0.62;;;;;10.40;1.00;;;;;;2270857;61;1764;-85
2021/12/14 02:05:01;568152.00;1.89;979.26;0.00;0.00;0.62;;;;;10.10;1.00;;;;;;2270892;61;1587;-85
2021/12/14 02:07:29;470507.00;1.57;811.06;0.00;0.00;0.62;;;;;10.10;1.00;;;;;;2271052;61;1140;-85
2021/12/14 02:10:02;361093.00;1.20;622.93;0.00;0.00;0.62;;;;;10.00;1.00;;;;;;2270638;61;1759;-86
2021/12/14 02:12:32;342848.00;1.14;591.57;0.00;0.00;0.62;;;;;9.90;1.00;;;;;;2271480;61;1291;-85
2021/12/14 02:15:08;503000.00;1.68;866.99;0.00;0.00;0.62;;;;;10.20;1.00;;;;;;2271262;61;2008;-85
2021/12/14 02:17:35;305818.00;1.02;527.92;0.00;0.00;0.62;;;;;10.50;1.00;;;;;;2275315;61;1164;-85
2021/12/14 02:20:02;441749.00;1.47;761.59;0.00;0.00;0.62;;;;;10.80;1.00;;;;;;2275904;61;1250;-85
2021/12/14 02:22:30;411514.00;1.37;709.60;0.00;0.00;0.62;;;;;11.10;1.00;;;;;;2275979;61;1231;-86
2021/12/14 02:24:57;477010.00;1.59;822.25;0.00;0.00;0.62;;;;;11.30;1.00;;;;;;2275164;61;1365;-85
2021/12/14 02:27:25;117614848.00;392.05;65904812.00;0.00;0.00;0.62;;;;;10.90;1.00;;;;;;2274393;61;1155;-85
2021/12/14 02:29:52;268969.00;0.90;464.57;0.00;0.00;0.62;;;;;10.70;1.00;;;;;;2271256;61;1151;-85
2021/12/14 02:32:26;394368.00;1.31;680.12;0.00;0.00;0.62;;;;;10.70;1.00;;;;;;2271099;61;1116;-85
2021/12/14 02:35:00;471120.00;1.57;812.12;0.00;0.00;0.62;;;;;10.90;1.00;;;;;;2271101;61;2026;-85
2021/12/14 02:37:39;338550.00;1.13;584.18;0.00;0.00;0.62;;;;;11.10;1.00;;;;;;2270746;61;1108;-85
2021/12/14 02:40:17;366903.00;1.22;632.91;0.00;0.00;0.62;;;;;10.70;1.00;;;;;;2270761;61;1256;-85
2021/12/14 02:42:45;357919.00;1.19;617.47;0.00;0.00;0.62;;;;;10.20;1.00;;;;;;2270946;61;1389;-86
2021/12/14 02:45:12;389222.00;1.30;671.28;0.00;0.00;0.62;;;;;10.20;1.00;;;;;;2270467;61;1141;-85
2021/12/14 02:47:39;373008.00;1.24;643.41;0.00;0.00;0.62;;;;;10.40;1.00;;;;;;2270994;61;1092;-85
2021/12/14 02:50:08;331284.00;1.10;571.69;0.00;0.00;0.62;;;;;10.30;1.00;;;;;;2270815;61;1614;-85
2021/12/14 02:52:37;273451.00;0.91;472.28;0.00;0.00;0.62;;;;;10.50;1.00;;;;;;2270875;61;1184;-85
2021/12/14 02:55:12;397623.00;1.33;685.72;0.00;0.00;0.62;;;;;10.50;1.00;;;;;;2270228;61;1923;-85
2021/12/14 02:57:43;489307.00;1.63;843.42;0.00;0.00;0.62;;;;;10.50;1.00;;;;;;2270470;61;1082;-85
2021/12/14 03:00:17;476378.00;1.59;821.16;0.00;0.00;0.62;;;;;10.30;1.00;;;;;;2270158;61;1181;-85
2021/12/14 03:02:45;526231.00;1.75;907.00;0.00;0.00;0.62;;;;;10.00;1.00;;;;;;2270770;61;1419;-85
2021/12/14 03:05:17;353688.00;1.18;610.20;0.00;0.00;0.62;;;;;9.90;1.00;;;;;;2271274;61;1143;-85
2021/12/14 03:07:51;460612.00;1.54;794.04;0.00;0.00;0.62;;;;;10.00;1.00;;;;;;2270850;61;1244;-85
2021/12/14 03:10:35;407514.00;1.36;702.72;0.00;0.00;0.62;;;;;10.40;1.00;;;;;;2270811;61;1114;-84
2021/12/14 03:13:06;376597.00;1.26;649.58;0.00;0.00;0.62;;;;;10.50;1.00;;;;;;2271108;61;1517;-86
2021/12/14 03:15:45;325957.00;1.09;562.54;0.00;0.00;0.62;;;;;10.40;1.00;;;;;;2270858;61;2013;-85
2021/12/14 03:18:15;371912.00;1.24;641.52;0.00;0.00;0.62;;;;;10.20;1.00;;;;;;2270416;61;1159;-85
2021/12/14 03:20:46;372537.00;1.24;642.60;0.00;0.00;0.62;;;;;10.40;1.00;;;;;;2270219;61;1310;-85
2021/12/14 03:23:19;619689.00;2.07;1068.23;0.00;0.00;0.62;;;;;10.60;1.00;;;;;;2270381;61;1769;-86
2021/12/14 03:25:49;434319.00;1.45;748.81;0.00;0.00;0.62;;;;;10.60;1.00;;;;;;2270112;61;1128;-86
2021/12/14 03:28:18;373164.00;1.24;643.68;0.00;0.00;0.62;;;;;10.40;1.00;;;;;;2270889;61;1127;-86
2021/12/14 03:31:03;391061.00;1.30;674.44;0.00;0.00;0.62;;;;;10.60;1.00;;;;;;2270519;61;1107;-86
2021/12/14 03:33:33;486221.00;1.62;838.10;0.00;0.00;0.62;;;;;10.50;1.00;;;;;;2270345;61;1381;-86
2021/12/14 03:36:05;414037.00;1.38;713.94;0.00;0.00;0.62;;;;;10.70;1.00;;;;;;2270482;61;1934;-85
2021/12/14 03:38:37;438701.00;1.46;756.35;0.00;0.00;0.62;;;;;10.80;1.00;;;;;;2270184;61;1127;-86
2021/12/14 03:41:10;350273.00;1.17;604.33;0.00;0.00;0.62;;;;;11.00;1.00;;;;;;2270185;61;1172;-86
2021/12/14 03:43:41;332025.00;1.11;572.97;0.00;0.00;0.62;;;;;10.80;1.00;;;;;;2269857;61;1402;-86
2021/12/14 03:46:09;359990.00;1.20;621.03;0.00;0.00;0.62;;;;;10.60;1.00;;;;;;2270095;61;1603;-86
2021/12/14 03:48:39;435141.00;1.45;750.23;0.00;0.00;0.62;;;;;10.40;1.00;;;;;;2269559;61;1189;-86
2021/12/14 03:51:06;343382.00;1.14;592.49;0.00;0.00;0.62;;;;;10.40;1.00;;;;;;2270021;61;1103;-86
2021/12/14 03:53:35;404213.00;1.35;697.05;0.00;0.00;0.62;;;;;10.60;1.00;;;;;;2270359;61;1350;-86
2021/12/14 03:56:08;119053904.00;396.85;68355872.00;0.00;0.00;0.62;;;;;10.50;1.00;;;;;;2269913;61;2021;-86
2021/12/14 03:58:38;338799.00;1.13;584.61;0.00;0.00;0.62;;;;;10.60;1.00;;;;;;2274575;61;1160;-89
2021/12/14 04:01:10;465443.00;1.55;802.35;0.00;0.00;0.62;;;;;10.90;1.00;;;;;;2276538;61;1009;-88
2021/12/14 04:03:37;417390.00;1.39;719.70;0.00;0.00;0.62;;;;;11.10;1.00;;;;;;2273777;61;1481;-89
2021/12/14 04:06:05;319935.00;1.07;552.19;0.00;0.00;0.62;;;;;11.40;1.00;;;;;;2276658;61;938;-90
2021/12/14 04:08:34;352164.00;1.17;607.58;0.00;0.00;0.62;;;;;10.90;1.00;;;;;;2275332;61;1486;-86
2021/12/14 04:11:04;401635.00;1.34;692.62;0.00;0.00;0.62;;;;;10.40;1.00;;;;;;2275904;61;1175;-88
2021/12/14 04:13:34;389278.00;1.30;671.37;0.00;0.00;0.62;;;;;10.40;1.00;;;;;;2276594;61;1434;-88
2021/12/14 04:16:01;505695.00;1.69;871.63;0.00;0.00;0.62;;;;;10.30;1.00;;;;;;2276626;61;1938;-86
2021/12/14 04:18:28;386628.00;1.29;666.82;0.00;0.00;0.62;;;;;10.10;1.00;;;;;;2273953;61;1149;-86
2021/12/14 04:20:56;289490.00;0.96;499.85;0.00;0.00;0.62;;;;;10.10;1.00;;;;;;2276496;61;1111;-87
2021/12/14 04:23:27;521185.00;1.74;898.31;19851.00;0.07;35.01;;;;;10.30;1.00;;;;;;2276483;61;1597;-88
2021/12/14 04:25:58;453706.00;1.51;782.16;0.00;0.00;0.62;;;;;10.10;1.00;;;;;;2276487;61;1179;-87
2021/12/14 04:28:29;372456.00;1.24;642.46;0.00;0.00;0.62;;;;;10.20;1.00;;;;;;2271813;61;1001;-86
2021/12/14 04:30:57;355846.00;1.19;613.91;0.00;0.00;0.62;;;;;10.30;1.00;;;;;;2269569;61;1176;-86
2021/12/14 04:33:27;480600.00;1.60;828.43;0.00;0.00;0.62;;;;;9.60;1.00;;;;;;2269453;61;1292;-85
2021/12/14 04:35:55;300940.00;1.00;519.54;0.00;0.00;0.62;;;;;9.30;1.00;;;;;;2271007;61;1950;-86
2021/12/14 04:38:28;360052.00;1.20;621.14;0.00;0.00;0.62;;;;;9.30;1.00;;;;;;2270633;61;1118;-86
2021/12/14 04:52:06;431697.00;1.44;744.30;21401.00;0.07;37.70;;;;;8.50;1.00;;;;;;2270906;61;751;-86
2021/12/14 04:54:39;495009.00;1.65;853.23;0.00;0.00;0.62;;;;;8.60;1.00;;;;;;2270137;61;1931;-85
2021/12/14 04:57:19;388670.00;1.30;670.33;0.00;0.00;0.62;;;;;8.30;1.00;;;;;;2269725;61;1234;-85
2021/12/14 04:59:46;439387.00;1.46;757.53;0.00;0.00;0.62;;;;;8.30;1.00;;;;;;2269609;61;1038;-86
2021/12/14 05:02:17;443432.00;1.48;764.49;0.00;0.00;0.62;;;;;8.40;1.00;;;;;;2269736;61;1161;-86
2021/12/14 05:04:44;398101.00;1.33;686.54;0.00;0.00;0.62;;;;;8.60;1.00;;;;;;2269652;61;1465;-85
2021/12/14 05:10:08;528818.00;1.76;911.46;0.00;0.00;0.62;;;;;9.00;1.00;;;;;;2283324;60;1464;-84
2021/12/14 05:12:38;309298.00;1.03;533.90;0.00;0.00;0.62;;;;;9.50;1.00;;;;;;2277082;61;1354;-84
2021/12/14 05:15:10;348735.00;1.16;601.69;0.00;0.00;0.62;;;;;9.60;1.00;;;;;;2277106;61;1738;-85
2021/12/14 05:17:40;425461.00;1.42;733.58;0.00;0.00;0.62;;;;;9.80;1.00;;;;;;2277187;61;1323;-84
2021/12/14 05:20:10;389768.00;1.30;672.22;0.00;0.00;0.62;;;;;9.60;1.00;;;;;;2276661;61;1167;-84
2021/12/14 05:22:42;456642.00;1.52;787.21;0.00;0.00;0.62;;;;;9.60;1.00;;;;;;2277130;61;1709;-87
2021/12/14 05:25:16;379147.00;1.26;653.96;0.00;0.00;0.62;;;;;8.50;1.00;;;;;;2277292;61;1185;-84
2021/12/14 05:27:46;424925.00;1.42;732.66;0.00;0.00;0.62;;;;;7.90;1.00;;;;;;2276876;61;1986;-84
2021/12/14 05:30:18;411485.00;1.37;709.55;0.00;0.00;0.62;;;;;7.80;1.00;;;;;;2277006;61;1146;-84
2021/12/14 05:32:46;478578.00;1.60;824.95;0.00;0.00;0.62;;;;;8.20;1.00;;;;;;2276849;61;1466;-84
2021/12/14 05:35:17;460192.00;1.53;793.31;0.00;0.00;0.62;;;;;8.50;1.00;;;;;;2276851;61;1137;-84
2021/12/14 05:37:48;379207.00;1.26;654.06;0.00;0.00;0.62;;;;;9.00;1.00;;;;;;2277000;61;1160;-85
2021/12/14 05:40:35;387874.00;1.29;668.96;0.00;0.00;0.62;;;;;9.90;1.00;;;;;;2277230;61;1182;-85
2021/12/14 05:43:08;524908.00;1.75;904.72;81563.00;0.27;141.74;;;;;10.10;1.00;;;;;;2276864;61;1376;-85
2021/12/14 05:45:39;343098.00;1.14;592.00;0.00;0.00;0.62;;;;;9.90;1.00;;;;;;2276700;61;1168;-85
2021/12/14 05:48:08;311309.00;1.04;537.36;0.00;0.00;0.62;;;;;9.90;1.00;;;;;;2276986;61;1945;-84
2021/12/14 05:50:40;365770.00;1.22;630.97;0.00;0.00;0.62;;;;;10.10;1.00;;;;;;2276824;61;1208;-84
2021/12/14 05:53:08;377782.00;1.26;651.61;0.00;0.00;0.62;;;;;10.10;1.00;;;;;;2278799;61;1384;-84
2021/12/14 05:55:41;403907.00;1.35;696.52;0.00;0.00;0.62;;;;;10.00;1.00;;;;;;2277707;61;1120;-84
2021/12/14 05:58:15;307763.00;1.03;531.26;0.00;0.00;0.62;;;;;9.30;1.00;;;;;;2277343;61;1186;-84
2021/12/14 06:00:45;332327.00;1.11;573.49;0.00;0.00;0.62;;;;;9.10;1.00;;;;;;2276892;61;1698;-85
2021/12/14 06:03:21;311558.00;1.04;537.79;0.00;0.00;0.62;;;;;9.30;1.00;;;;;;2277517;61;1320;-85
2021/12/14 06:05:50;426662.00;1.42;735.65;0.00;0.00;0.62;;;;;8.30;1.00;;;;;;2277474;61;1167;-84
2021/12/14 06:08:23;663724.00;2.21;1144.39;101068.00;0.34;175.42;;;;;8.00;1.00;;;;;;2276771;61;1927;-85
2021/12/14 06:10:53;564913.00;1.88;973.67;100180.00;0.33;173.88;;;;;7.80;1.00;;;;;;2277025;61;1109;-85
2021/12/14 06:13:20;361402.00;1.20;623.46;0.00;0.00;0.62;;;;;7.90;1.00;;;;;;2276996;61;1254;-85
2021/12/14 06:15:48;485918.00;1.62;837.58;0.00;0.00;0.62;;;;;7.70;1.00;;;;;;2276974;61;1130;-86
2021/12/14 06:18:24;442123.00;1.47;762.23;0.00;0.00;0.62;;;;;8.60;1.00;;;;;;2276785;61;1101;-85
2021/12/14 06:20:51;323697.00;1.08;558.65;0.00;0.00;0.62;;;;;9.40;1.00;;;;;;2274405;61;1200;-85
2021/12/14 06:23:25;542764.00;1.81;935.49;0.00;0.00;0.62;;;;;9.20;1.00;;;;;;2273456;61;1261;-85
2021/12/14 06:25:54;496090.00;1.65;855.09;85944.00;0.29;149.30;;;;;8.60;1.00;;;;;;2274095;61;1068;-84
2021/12/14 06:28:26;701151.00;2.34;1209.23;101235.00;0.34;175.70;;;;;8.50;1.00;;;;;;2273806;61;1939;-84
2021/12/14 06:30:54;576499.00;1.92;993.66;104758.00;0.35;181.78;;;;;9.20;1.00;;;;;;2274409;61;1105;-84
2021/12/14 06:33:22;536057.00;1.79;923.93;88203.00;0.29;153.20;;;;;9.30;1.00;;;;;;2274541;61;1371;-84
2021/12/14 06:35:51;509002.00;1.70;877.32;102235.00;0.34;177.43;;;;;8.70;1.00;;;;;;2275326;61;1395;-84
2021/12/14 06:38:28;534994.00;1.78;922.10;91379.00;0.30;158.69;;;;;8.70;1.00;;;;;;2274622;61;1207;-84
2021/12/14 06:41:02;421867.00;1.41;727.40;0.00;0.00;0.62;;;;;9.00;1.00;;;;;;2274719;61;1247;-85
2021/12/14 06:43:33;453005.00;1.51;780.95;0.00;0.00;0.62;;;;;8.90;1.00;;;;;;2275253;61;1492;-85
2021/12/14 06:46:04;304382.00;1.01;525.45;0.00;0.00;0.62;;;;;8.80;1.00;;;;;;2277465;61;1156;-85
2021/12/14 06:48:38;446519.00;1.49;769.80;0.00;0.00;0.62;;;;;9.00;1.00;;;;;;2280560;61;1988;-85
2021/12/14 06:51:09;419948.00;1.40;724.10;0.00;0.00;0.62;;;;;9.10;1.00;;;;;;2279513;61;1115;-87
2021/12/14 06:53:37;536305.00;1.79;924.36;0.00;0.00;0.62;;;;;9.10;1.00;;;;;;2280768;61;1444;-87
2021/12/14 06:56:08;641248.00;2.14;1105.50;0.00;0.00;0.62;;;;;8.90;1.00;;;;;;2280802;61;1650;-87
2021/12/14 06:58:39;546742.00;1.82;942.34;0.00;0.00;0.62;;;;;8.70;1.00;;;;;;2279261;61;1017;-86
2021/12/14 07:01:09;515888.00;1.72;889.18;0.00;0.00;0.62;;;;;7.90;1.00;;;;;;2274688;61;1242;-87
2021/12/14 07:03:48;406617.00;1.36;701.18;0.00;0.00;0.62;;;;;8.00;1.00;;;;;;2274787;61;1406;-84
2021/12/14 07:06:24;320943.00;1.07;553.92;0.00;0.00;0.62;;;;;8.80;1.00;;;;;;2274560;61;1112;-86
2021/12/14 07:08:51;344361.00;1.15;594.17;0.00;0.00;0.62;;;;;9.10;1.00;;;;;;2274913;61;2012;-87
2021/12/14 07:11:21;483694.00;1.61;833.76;0.00;0.00;0.62;;;;;8.10;1.00;;;;;;2275260;61;1183;-86
2021/12/14 07:13:49;366462.00;1.22;632.16;0.00;0.00;0.62;;;;;7.80;1.00;;;;;;2274456;61;1462;-85
2021/12/14 07:16:21;394780.00;1.32;680.83;0.00;0.00;0.62;;;;;8.20;1.00;;;;;;2274911;61;1095;-86
2021/12/14 07:18:52;522491.00;1.74;900.56;0.00;0.00;0.62;;;;;7.50;1.00;;;;;;2275223;61;1712;-86
2021/12/14 07:21:36;479873.00;1.60;827.18;0.00;0.00;0.62;;;;;7.30;1.00;;;;;;2274717;61;1053;-86
2021/12/14 07:26:32;235972.00;0.79;407.82;0.00;0.00;0.62;;;;;7.60;1.00;;;;;;2278892;61;1398;-83
2021/12/14 07:36:28;70216.00;0.23;122.13;0.00;0.00;0.62;;;;;7.40;1.00;;;;;;2523953;39;3590;31
2021/12/14 07:38:58;301948.00;1.01;521.27;0.00;0.00;0.62;;;;;7.70;1.00;;;;;;2273380;61;1281;-81
2021/12/14 07:41:29;211622.00;0.71;365.93;0.00;0.00;0.62;;;;;8.10;1.00;;;;;;2269195;61;983;-83
2021/12/14 07:43:59;198044.00;0.66;342.56;0.00;0.00;0.62;;;;;8.50;1.00;;;;;;2323908;39;3918;31
2021/12/14 08:16:02;204780.00;0.68;354.15;0.00;0.00;0.62;;;;;8.80;1.00;;;;;;2436155;39;3594;31
2021/12/14 08:21:02;249339.00;0.83;430.81;0.00;0.00;0.62;;;;;8.30;1.00;;;;;;2278591;61;1402;-82
2021/12/14 08:33:25;575776.00;1.92;992.41;10195.00;0.03;18.29;;;;;9.30;1.00;;;;;;2282511;61;1476;-87
2021/12/14 08:35:54;640358.00;2.13;1103.96;0.00;0.00;0.62;;;;;8.70;1.00;;;;;;2279779;61;1321;-86
2021/12/14 08:38:22;965819.00;3.22;1672.03;65379.00;0.22;113.77;;;;;8.20;1.00;;;;;;2271773;61;944;-85
2021/12/14 08:48:16;852517.00;2.84;1472.87;0.00;0.00;0.62;;;;;9.60;1.00;;;;;;2281982;61;1162;-85
2021/12/14 08:50:52;895608.00;2.99;1548.41;31090.00;0.10;54.47;;;;;8.70;1.00;;;;;;2276846;61;2022;-85
2021/12/14 08:53:20;882724.00;2.94;1525.80;38064.00;0.13;66.54;;;;;7.90;1.00;;;;;;2273226;61;999;-83
2021/12/14 08:55:52;723358.00;2.41;1247.77;0.00;0.00;0.62;;;;;7.40;1.00;;;;;;2280091;61;1443;-85
2021/12/14 08:58:19;891428.00;2.97;1541.07;63259.00;0.21;110.11;;;;;7.40;1.00;;;;;;2276687;61;953;-84
2021/12/14 09:00:50;1013133.00;3.38;1755.75;65740.00;0.22;114.40;;;;;7.80;1.00;;;;;;2273347;61;952;-86
2021/12/14 09:03:31;1178178.00;3.93;2050.82;58137.00;0.19;101.26;;;;;8.40;1.00;;;;;;2280439;61;1016;-86
2021/12/14 09:05:58;1044901.00;3.48;1812.16;8010.00;0.03;14.50;;;;;8.60;1.00;;;;;;2273146;61;928;-85
2021/12/14 09:08:25;897358.00;2.99;1551.48;47480.00;0.16;82.83;;;;;8.70;1.00;;;;;;2276426;61;1014;-82
2021/12/14 09:13:22;997974.00;3.33;1728.88;163223.00;0.54;282.59;;;;;9.50;1.00;;;;;;2278299;61;1414;-86
2021/12/14 09:23:16;303330.00;1.01;523.64;93535.00;0.31;162.41;;;;;11.10;1.00;;;;;;2278129;61;1394;-84
2021/12/14 09:25:44;462112.00;1.54;796.62;94632.00;0.32;164.31;;;;;11.20;1.00;;;;;;2269344;61;1422;-85
2021/12/14 09:30:44;348037.00;1.16;600.49;87504.00;0.29;152.00;;;;;10.80;1.00;;;;;;2278323;61;1988;-85
2021/12/14 09:33:14;337897.00;1.13;583.06;94300.00;0.31;163.73;;;;;10.90;1.00;;;;;;2269104;61;992;-83
2021/12/14 09:35:42;383979.00;1.28;662.26;92627.00;0.31;160.84;;;;;11.40;1.00;;;;;;2276169;61;1227;-83
2021/12/14 09:43:05;291619.00;0.97;503.51;100386.00;0.33;174.24;;;;;10.70;1.00;;;;;;2282004;61;1374;-85
2021/12/14 09:45:42;172765.00;0.58;299.03;0.00;0.00;0.62;;;;;11.00;1.00;;;;;;2276366;61;1415;-83
2021/12/14 09:48:14;445142.00;1.48;767.43;88039.00;0.29;152.92;;;;;10.90;1.00;;;;;;2280080;61;997;-85
2021/12/14 09:53:15;292308.00;0.97;504.70;95515.00;0.32;165.83;;;;;11.30;1.00;;;;;;2282014;61;1397;-84
2021/12/14 10:03:06;347088.00;1.16;598.86;97598.00;0.33;169.43;;;;;11.70;1.00;;;;;;2286619;61;1397;-83
2021/12/14 10:05:39;276781.00;0.92;478.00;91405.00;0.30;158.73;;;;;11.90;1.00;;;;;;2280680;60;1394;-82
2021/12/14 10:13:01;128453.00;0.43;222.66;0.00;0.00;0.62;;;;;11.90;1.00;;;;;;2282787;61;1414;-84
2021/12/14 10:15:35;218126.00;0.73;377.12;0.00;0.00;0.62;;;;;11.80;1.00;;;;;;2277102;61;1452;-85
2021/12/14 10:18:09;111621.00;0.37;193.63;0.00;0.00;0.62;;;;;11.90;1.00;;;;;;2276921;61;997;-83
2021/12/14 10:23:06;212460.00;0.71;367.37;0.00;0.00;0.62;;;;;11.30;1.00;;;;;;2282531;61;1402;-85
2021/12/14 10:25:34;181018.00;0.60;313.24;0.00;0.00;0.62;;;;;11.50;1.00;;;;;;2280443;61;1416;-84
2021/12/14 10:37:57;236096.00;0.79;408.04;0.00;0.00;0.62;;;;;12.50;1.00;;;;;;2282582;61;1394;-85
2021/12/14 10:45:49;134237.00;0.45;232.64;0.00;0.00;0.62;;;;;11.90;1.00;;;;;;2282568;61;1387;-86
2021/12/14 11:00:44;371707.00;1.24;641.17;0.00;0.00;0.62;;;;;12.10;1.00;;;;;;2282432;61;1390;-82
2021/12/14 11:05:44;162821.00;0.54;281.90;0.00;0.00;0.62;;;;;12.00;1.00;;;;;;2282166;61;1567;-85
2021/12/14 11:08:21;138999.00;0.46;240.85;0.00;0.00;0.62;;;;;12.20;1.00;;;;;;2276870;61;973;-83
2021/12/14 11:13:17;354598.00;1.18;611.76;0.00;0.00;0.62;;;;;12.90;1.00;;;;;;2282446;61;1405;-83
2021/12/14 11:15:49;133375.00;0.44;231.15;0.00;0.00;0.62;;;;;12.90;1.00;;;;;;2280168;60;1353;-82
2021/12/14 11:18:21;161882.00;0.54;280.28;0.00;0.00;0.62;;;;;12.90;1.00;;;;;;2276987;61;996;-84
2021/12/14 11:20:52;93668.00;0.31;162.64;0.00;0.00;0.62;;;;;12.80;1.00;;;;;;2280624;61;1000;-82
2021/12/14 11:23:23;75333.00;0.25;130.97;0.00;0.00;0.62;;;;;12.90;1.00;;;;;;2272045;61;948;-84
2021/12/14 11:28:24;751862.00;2.51;1297.30;3606.00;0.01;6.87;;;;;13.50;1.00;;;;;;2286274;60;1409;-85
2021/12/14 11:33:25;322646.00;1.08;556.85;28271.00;0.09;49.59;;;;;13.40;1.00;;;;;;2286305;61;1414;-85
2021/12/14 11:36:00;210782.00;0.70;364.48;0.00;0.00;0.62;;;;;13.50;1.00;;;;;;2284636;61;1392;-83
2021/12/14 11:38:33;129649.00;0.43;224.72;0.00;0.00;0.62;;;;;13.10;1.00;;;;;;2280885;60;1044;-84
2021/12/14 11:41:05;424804.00;1.42;732.45;7826.00;0.03;14.18;;;;;12.70;1.00;;;;;;2277779;61;991;-82
2021/12/14 11:43:34;642674.00;2.14;1107.96;14458.00;0.05;25.67;;;;;12.70;1.00;;;;;;2277692;60;1026;-84
2021/12/14 11:46:07;923310.00;3.08;1597.10;45981.00;0.15;80.24;;;;;13.00;1.00;;;;;;2284246;60;1040;-84
2021/12/14 11:51:08;428289.00;1.43;738.44;1714.00;0.01;3.59;;;;;13.40;1.00;;;;;;2282693;61;1894;-84
2021/12/14 11:58:33;652042.00;2.17;1124.17;0.00;0.00;0.62;;;;;13.10;1.00;;;;;;2282751;61;1189;-82
2021/12/14 12:01:15;642937.00;2.14;1108.42;0.00;0.00;0.62;;;;;12.90;1.00;;;;;;2280250;61;968;-81
2021/12/14 12:11:35;844978.00;2.82;1459.68;31316.00;0.10;54.86;;;;;13.20;1.00;;;;;;2280597;61;1986;-81
2021/12/14 12:14:17;738748.00;2.46;1274.50;0.00;0.00;0.62;;;;;13.40;1.00;;;;;;2280159;61;1479;-84
2021/12/14 12:16:45;846554.00;2.82;1462.44;66902.00;0.22;116.41;;;;;13.30;1.00;;;;;;2280368;61;1025;-84
2021/12/14 12:21:40;769042.00;2.56;1327.18;91055.00;0.30;158.13;;;;;13.70;1.00;;;;;;2281999;61;1386;-85
2021/12/14 12:31:46;269859.00;0.90;466.10;86199.00;0.29;149.74;;;;;14.00;1.00;;;;;;2282280;61;2010;-83
2021/12/14 12:36:44;96716.00;0.32;167.90;0.00;0.00;0.62;;;;;14.00;1.00;;;;;;2282027;61;1394;-83
2021/12/14 12:39:13;102291.00;0.34;177.53;0.00;0.00;0.62;;;;;13.80;1.00;;;;;;2273477;61;1006;-84
2021/12/14 12:41:47;76626.00;0.26;133.21;0.00;0.00;0.62;;;;;13.90;1.00;;;;;;2273168;61;963;-84
2021/12/14 12:44:17;72323.00;0.24;125.77;0.00;0.00;0.62;;;;;14.00;1.00;;;;;;2271690;61;1431;-84
2021/12/14 12:52:05;86467.00;0.29;150.21;0.00;0.00;0.62;;;;;14.10;1.00;;;;;;2281865;61;1955;-83
2021/12/14 12:57:23;138371.00;0.46;239.76;0.00;0.00;0.62;;;;;14.20;1.00;;;;;;2282098;61;1401;-85
2021/12/14 12:59:55;325520.00;1.09;561.79;11383.00;0.04;20.35;;;;;14.40;1.00;;;;;;2280448;61;906;-84
2021/12/14 13:02:29;154094.00;0.51;266.86;0.00;0.00;0.62;;;;;14.30;1.00;;;;;;2280443;61;1005;-84
2021/12/14 13:05:00;162875.00;0.54;281.99;0.00;0.00;0.62;;;;;14.10;1.00;;;;;;2273022;61;1435;-83
2021/12/14 13:12:51;222605.00;0.74;384.83;0.00;0.00;0.62;;;;;13.80;1.00;;;;;;2282003;61;1181;-84
2021/12/14 13:17:45;209241.00;0.70;361.83;0.00;0.00;0.62;;;;;14.00;1.00;;;;;;2281930;61;1414;-85
2021/12/14 13:22:47;152041.00;0.51;263.32;0.00;0.00;0.62;;;;;13.80;1.00;;;;;;2282227;61;1414;-85
2021/12/14 13:35:35;32083.00;0.11;56.19;0.00;0.00;0.62;;;;;13.50;1.00;;;;;;2286931;61;1367;-87
2021/12/14 13:58:39;189009.00;0.63;327.00;0.00;0.00;0.62;;;;;11.20;1.00;;;;;;2270619;61;1561;-87
2021/12/14 14:01:10;247236.00;0.82;427.20;7917.00;0.03;14.34;;;;;11.30;1.00;;;;;;2269125;61;1003;-86
2021/12/14 14:03:40;39909.00;0.13;69.73;0.00;0.00;0.62;;;;;11.00;1.00;;;;;;2269012;61;1764;-88
2021/12/14 14:06:11;25241.00;0.08;44.34;0.00;0.00;0.62;;;;;11.00;1.00;;;;;;2269009;61;1387;-88
2021/12/14 14:08:42;186678.00;0.62;322.99;18666.00;0.06;32.96;;;;;10.70;1.00;;;;;;2269064;61;1126;-87
2021/12/14 14:11:18;103477.00;0.34;179.57;0.00;0.00;0.62;;;;;10.90;1.00;;;;;;2265250;61;1924;-87